sensor_id;sensor_type;location;lat;lon;timestamp;P1;durP1;ratioP1;P2;durP2;ratioP2
81901;SDS011;71369;50.796;3.290;2024-01-16T00:01:52;8.88;;;4.53;;
81901;SDS011;71369;50.796;3.290;2024-01-16T00:04:20;15.77;;;4.85;;
81901;SDS011;71369;50.796;3.290;2024-01-16T00:06:46;16.48;;;4.28;;
81901;SDS011;71369;50.796;3.290;2024-01-16T00:09:12;11.52;;;4.63;;
81901;SDS011;71369;50.796;3.290;2024-01-16T00:11:47;6.00;;;4.13;;
81901;SDS011;71369;50.796;3.290;2024-01-16T00:14:14;8.63;;;4.00;;
81901;SDS011;71369;50.796;3.290;2024-01-16T00:16:47;6.63;;;3.50;;
81901;SDS011;71369;50.796;3.290;2024-01-16T00:21:42;8.90;;;5.00;;
81901;SDS011;71369;50.796;3.290;2024-01-16T00:24:15;14.27;;;4.60;;
81901;SDS011;71369;50.796;3.290;2024-01-16T00:26:41;7.00;;;3.60;;
81901;SDS011;71369;50.796;3.290;2024-01-16T00:29:07;7.53;;;4.53;;
81901;SDS011;71369;50.796;3.290;2024-01-16T00:31:38;8.52;;;3.72;;
81901;SDS011;71369;50.796;3.290;2024-01-16T00:34:04;10.10;;;4.03;;
81901;SDS011;71369;50.796;3.290;2024-01-16T00:36:30;8.63;;;4.30;;
81901;SDS011;71369;50.796;3.290;2024-01-16T00:38:57;9.75;;;4.43;;
81901;SDS011;71369;50.796;3.290;2024-01-16T00:41:26;9.88;;;4.15;;
81901;SDS011;71369;50.796;3.290;2024-01-16T00:43:53;9.68;;;4.18;;
81901;SDS011;71369;50.796;3.290;2024-01-16T00:46:20;11.10;;;5.35;;
81901;SDS011;71369;50.796;3.290;2024-01-16T00:48:47;6.68;;;4.05;;
81901;SDS011;71369;50.796;3.290;2024-01-16T00:51:13;8.88;;;4.22;;
81901;SDS011;71369;50.796;3.290;2024-01-16T00:53:40;11.65;;;4.22;;
81901;SDS011;71369;50.796;3.290;2024-01-16T00:56:09;8.60;;;3.75;;
81901;SDS011;71369;50.796;3.290;2024-01-16T00:58:36;7.55;;;3.63;;
81901;SDS011;71369;50.796;3.290;2024-01-16T01:01:03;8.18;;;4.07;;
81901;SDS011;71369;50.796;3.290;2024-01-16T01:03:33;11.95;;;4.25;;
81901;SDS011;71369;50.796;3.290;2024-01-16T01:06:04;8.38;;;3.28;;
81901;SDS011;71369;50.796;3.290;2024-01-16T01:10:57;9.80;;;3.70;;
81901;SDS011;71369;50.796;3.290;2024-01-16T01:13:22;8.65;;;3.88;;
81901;SDS011;71369;50.796;3.290;2024-01-16T01:15:52;10.02;;;3.70;;
81901;SDS011;71369;50.796;3.290;2024-01-16T01:18:17;8.52;;;3.53;;
81901;SDS011;71369;50.796;3.290;2024-01-16T01:20:43;6.40;;;3.65;;
81901;SDS011;71369;50.796;3.290;2024-01-16T01:23:10;5.93;;;2.90;;
81901;SDS011;71369;50.796;3.290;2024-01-16T01:25:35;6.68;;;3.45;;
81901;SDS011;71369;50.796;3.290;2024-01-16T01:28:01;9.93;;;3.97;;
81901;SDS011;71369;50.796;3.290;2024-01-16T01:32:56;12.40;;;3.60;;
81901;SDS011;71369;50.796;3.290;2024-01-16T01:35:22;7.90;;;3.53;;
81901;SDS011;71369;50.796;3.290;2024-01-16T01:37:50;11.95;;;3.72;;
81901;SDS011;71369;50.796;3.290;2024-01-16T01:40:16;10.88;;;3.25;;
81901;SDS011;71369;50.796;3.290;2024-01-16T01:42:42;11.32;;;3.25;;
81901;SDS011;71369;50.796;3.290;2024-01-16T01:45:09;7.38;;;3.67;;
81901;SDS011;71369;50.796;3.290;2024-01-16T01:47:36;4.88;;;3.10;;
81901;SDS011;71369;50.796;3.290;2024-01-16T01:50:08;8.23;;;3.60;;
81901;SDS011;71369;50.796;3.290;2024-01-16T01:52:34;6.90;;;3.58;;
81901;SDS011;71369;50.796;3.290;2024-01-16T01:55:05;7.50;;;3.97;;
81901;SDS011;71369;50.796;3.290;2024-01-16T01:57:35;8.50;;;3.97;;
81901;SDS011;71369;50.796;3.290;2024-01-16T02:00:01;11.43;;;3.72;;
81901;SDS011;71369;50.796;3.290;2024-01-16T02:02:29;10.40;;;3.38;;
81901;SDS011;71369;50.796;3.290;2024-01-16T02:05:01;9.23;;;3.50;;
81901;SDS011;71369;50.796;3.290;2024-01-16T02:07:31;5.35;;;2.88;;
81901;SDS011;71369;50.796;3.290;2024-01-16T02:09:59;6.70;;;3.40;;
81901;SDS011;71369;50.796;3.290;2024-01-16T02:12:25;5.43;;;3.17;;
81901;SDS011;71369;50.796;3.290;2024-01-16T02:14:51;11.27;;;4.22;;
81901;SDS011;71369;50.796;3.290;2024-01-16T02:17:17;5.50;;;3.25;;
81901;SDS011;71369;50.796;3.290;2024-01-16T02:19:42;7.97;;;3.15;;
81901;SDS011;71369;50.796;3.290;2024-01-16T02:22:09;9.30;;;3.47;;
81901;SDS011;71369;50.796;3.290;2024-01-16T02:24:42;7.80;;;3.65;;
81901;SDS011;71369;50.796;3.290;2024-01-16T02:27:11;6.78;;;3.50;;
81901;SDS011;71369;50.796;3.290;2024-01-16T02:29:41;8.60;;;3.53;;
81901;SDS011;71369;50.796;3.290;2024-01-16T02:34:42;6.03;;;3.20;;
81901;SDS011;71369;50.796;3.290;2024-01-16T02:37:15;8.55;;;3.92;;
81901;SDS011;71369;50.796;3.290;2024-01-16T02:42:24;4.20;;;2.55;;
81901;SDS011;71369;50.796;3.290;2024-01-16T02:45:00;6.82;;;3.17;;
81901;SDS011;71369;50.796;3.290;2024-01-16T02:47:28;8.05;;;4.10;;
81901;SDS011;71369;50.796;3.290;2024-01-16T02:50:05;5.90;;;3.47;;
81901;SDS011;71369;50.796;3.290;2024-01-16T02:52:36;9.05;;;3.78;;
81901;SDS011;71369;50.796;3.290;2024-01-16T02:57:34;7.68;;;3.45;;
81901;SDS011;71369;50.796;3.290;2024-01-16T03:00:00;7.57;;;3.78;;
81901;SDS011;71369;50.796;3.290;2024-01-16T03:02:28;6.20;;;3.65;;
81901;SDS011;71369;50.796;3.290;2024-01-16T03:05:02;4.82;;;3.35;;
81901;SDS011;71369;50.796;3.290;2024-01-16T03:07:36;6.75;;;3.67;;
81901;SDS011;71369;50.796;3.290;2024-01-16T03:12:36;5.72;;;3.13;;
81901;SDS011;71369;50.796;3.290;2024-01-16T03:15:03;7.68;;;3.90;;
81901;SDS011;71369;50.796;3.290;2024-01-16T03:17:33;5.60;;;3.25;;
81901;SDS011;71369;50.796;3.290;2024-01-16T03:20:00;5.07;;;3.30;;
81901;SDS011;71369;50.796;3.290;2024-01-16T03:22:31;4.72;;;2.97;;
81901;SDS011;71369;50.796;3.290;2024-01-16T03:24:58;6.05;;;3.60;;
81901;SDS011;71369;50.796;3.290;2024-01-16T03:27:30;19.17;;;3.45;;
81901;SDS011;71369;50.796;3.290;2024-01-16T03:30:01;5.53;;;2.95;;
81901;SDS011;71369;50.796;3.290;2024-01-16T03:32:30;8.00;;;3.13;;
81901;SDS011;71369;50.796;3.290;2024-01-16T03:34:58;9.10;;;3.42;;
81901;SDS011;71369;50.796;3.290;2024-01-16T03:40:08;5.22;;;3.03;;
81901;SDS011;71369;50.796;3.290;2024-01-16T03:42:37;6.63;;;3.20;;
81901;SDS011;71369;50.796;3.290;2024-01-16T03:45:09;8.57;;;3.13;;
81901;SDS011;71369;50.796;3.290;2024-01-16T03:47:39;8.02;;;3.08;;
81901;SDS011;71369;50.796;3.290;2024-01-16T03:50:07;9.07;;;3.38;;
81901;SDS011;71369;50.796;3.290;2024-01-16T03:52:36;7.82;;;3.42;;
81901;SDS011;71369;50.796;3.290;2024-01-16T03:55:03;8.27;;;2.83;;
81901;SDS011;71369;50.796;3.290;2024-01-16T03:57:41;5.80;;;3.42;;
81901;SDS011;71369;50.796;3.290;2024-01-16T04:02:45;15.38;;;3.88;;
81901;SDS011;71369;50.796;3.290;2024-01-16T04:05:12;6.53;;;3.60;;
81901;SDS011;71369;50.796;3.290;2024-01-16T04:07:39;4.63;;;3.00;;
81901;SDS011;71369;50.796;3.290;2024-01-16T04:10:07;10.30;;;3.00;;
81901;SDS011;71369;50.796;3.290;2024-01-16T04:12:33;10.80;;;3.70;;
81901;SDS011;71369;50.796;3.290;2024-01-16T04:14:59;3.95;;;2.95;;
81901;SDS011;71369;50.796;3.290;2024-01-16T04:17:25;5.32;;;3.30;;
81901;SDS011;71369;50.796;3.290;2024-01-16T04:19:51;5.30;;;2.70;;
81901;SDS011;71369;50.796;3.290;2024-01-16T04:22:16;18.70;;;3.67;;
81901;SDS011;71369;50.796;3.290;2024-01-16T04:24:42;11.45;;;3.28;;
81901;SDS011;71369;50.796;3.290;2024-01-16T04:27:11;13.68;;;4.15;;
81901;SDS011;71369;50.796;3.290;2024-01-16T04:29:38;5.63;;;3.25;;
81901;SDS011;71369;50.796;3.290;2024-01-16T04:32:04;12.52;;;4.20;;
81901;SDS011;71369;50.796;3.290;2024-01-16T04:37:02;11.95;;;3.95;;
81901;SDS011;71369;50.796;3.290;2024-01-16T04:39:30;6.82;;;3.05;;
81901;SDS011;71369;50.796;3.290;2024-01-16T04:44:25;7.28;;;3.28;;
81901;SDS011;71369;50.796;3.290;2024-01-16T04:46:50;8.18;;;2.63;;
81901;SDS011;71369;50.796;3.290;2024-01-16T04:49:19;7.70;;;3.40;;
81901;SDS011;71369;50.796;3.290;2024-01-16T04:51:45;5.20;;;3.22;;
81901;SDS011;71369;50.796;3.290;2024-01-16T04:54:12;4.75;;;3.10;;
81901;SDS011;71369;50.796;3.290;2024-01-16T04:56:53;8.32;;;3.60;;
81901;SDS011;71369;50.796;3.290;2024-01-16T04:59:20;5.75;;;3.50;;
81901;SDS011;71369;50.796;3.290;2024-01-16T05:01:46;9.63;;;3.03;;
81901;SDS011;71369;50.796;3.290;2024-01-16T05:06:44;14.18;;;3.22;;
81901;SDS011;71369;50.796;3.290;2024-01-16T05:09:12;8.10;;;3.25;;
81901;SDS011;71369;50.796;3.290;2024-01-16T05:11:38;8.18;;;4.00;;
81901;SDS011;71369;50.796;3.290;2024-01-16T05:14:03;8.30;;;3.85;;
81901;SDS011;71369;50.796;3.290;2024-01-16T05:16:34;8.68;;;4.22;;
81901;SDS011;71369;50.796;3.290;2024-01-16T05:19:00;6.38;;;3.30;;
81901;SDS011;71369;50.796;3.290;2024-01-16T05:21:27;8.88;;;3.72;;
81901;SDS011;71369;50.796;3.290;2024-01-16T05:23:55;5.25;;;3.47;;
81901;SDS011;71369;50.796;3.290;2024-01-16T05:26:21;8.65;;;3.35;;
81901;SDS011;71369;50.796;3.290;2024-01-16T05:28:47;11.63;;;4.05;;
81901;SDS011;71369;50.796;3.290;2024-01-16T05:31:30;7.95;;;3.75;;
81901;SDS011;71369;50.796;3.290;2024-01-16T05:36:26;8.82;;;3.72;;
81901;SDS011;71369;50.796;3.290;2024-01-16T05:41:22;8.35;;;4.30;;
81901;SDS011;71369;50.796;3.290;2024-01-16T05:43:49;7.65;;;3.47;;
81901;SDS011;71369;50.796;3.290;2024-01-16T05:46:15;11.10;;;4.05;;
81901;SDS011;71369;50.796;3.290;2024-01-16T05:48:40;10.35;;;3.97;;
81901;SDS011;71369;50.796;3.290;2024-01-16T05:51:08;5.70;;;3.22;;
81901;SDS011;71369;50.796;3.290;2024-01-16T05:53:46;9.18;;;3.58;;
81901;SDS011;71369;50.796;3.290;2024-01-16T05:56:11;5.88;;;2.85;;
81901;SDS011;71369;50.796;3.290;2024-01-16T05:58:39;11.63;;;3.85;;
81901;SDS011;71369;50.796;3.290;2024-01-16T06:01:06;7.93;;;3.70;;
81901;SDS011;71369;50.796;3.290;2024-01-16T06:03:33;9.75;;;4.05;;
81901;SDS011;71369;50.796;3.290;2024-01-16T06:06:10;6.82;;;3.78;;
81901;SDS011;71369;50.796;3.290;2024-01-16T06:08:37;9.48;;;4.47;;
81901;SDS011;71369;50.796;3.290;2024-01-16T06:13:36;8.70;;;3.53;;
81901;SDS011;71369;50.796;3.290;2024-01-16T06:16:14;7.93;;;3.97;;
81901;SDS011;71369;50.796;3.290;2024-01-16T06:18:42;6.63;;;3.38;;
81901;SDS011;71369;50.796;3.290;2024-01-16T06:21:09;5.43;;;3.53;;
81901;SDS011;71369;50.796;3.290;2024-01-16T06:23:37;9.18;;;3.75;;
81901;SDS011;71369;50.796;3.290;2024-01-16T06:26:02;9.52;;;4.00;;
81901;SDS011;71369;50.796;3.290;2024-01-16T06:28:28;8.98;;;4.05;;
81901;SDS011;71369;50.796;3.290;2024-01-16T06:30:54;7.70;;;4.28;;
81901;SDS011;71369;50.796;3.290;2024-01-16T06:33:19;13.73;;;4.43;;
81901;SDS011;71369;50.796;3.290;2024-01-16T06:35:45;8.98;;;4.00;;
81901;SDS011;71369;50.796;3.290;2024-01-16T06:38:11;5.90;;;3.58;;
81901;SDS011;71369;50.796;3.290;2024-01-16T06:40:36;8.05;;;3.35;;
81901;SDS011;71369;50.796;3.290;2024-01-16T06:43:02;11.07;;;3.90;;
81901;SDS011;71369;50.796;3.290;2024-01-16T06:45:28;5.53;;;3.00;;
81901;SDS011;71369;50.796;3.290;2024-01-16T06:47:54;7.95;;;3.60;;
81901;SDS011;71369;50.796;3.290;2024-01-16T06:50:20;4.97;;;3.40;;
81901;SDS011;71369;50.796;3.290;2024-01-16T06:52:46;12.05;;;4.75;;
81901;SDS011;71369;50.796;3.290;2024-01-16T06:55:12;6.78;;;3.75;;
81901;SDS011;71369;50.796;3.290;2024-01-16T06:57:37;6.40;;;3.60;;
81901;SDS011;71369;50.796;3.290;2024-01-16T07:00:03;11.27;;;4.43;;
81901;SDS011;71369;50.796;3.290;2024-01-16T07:02:32;11.23;;;3.50;;
81901;SDS011;71369;50.796;3.290;2024-01-16T07:04:58;10.48;;;4.07;;
81901;SDS011;71369;50.796;3.290;2024-01-16T07:07:24;6.32;;;3.63;;
81901;SDS011;71369;50.796;3.290;2024-01-16T07:09:50;6.00;;;3.53;;
81901;SDS011;71369;50.796;3.290;2024-01-16T07:12:15;6.28;;;2.80;;
81901;SDS011;71369;50.796;3.290;2024-01-16T07:14:42;8.82;;;3.33;;
81901;SDS011;71369;50.796;3.290;2024-01-16T07:17:09;6.63;;;3.95;;
81901;SDS011;71369;50.796;3.290;2024-01-16T07:19:34;4.72;;;3.05;;
81901;SDS011;71369;50.796;3.290;2024-01-16T07:22:00;5.38;;;3.50;;
81901;SDS011;71369;50.796;3.290;2024-01-16T07:24:26;7.65;;;3.67;;
81901;SDS011;71369;50.796;3.290;2024-01-16T07:26:53;6.10;;;3.40;;
81901;SDS011;71369;50.796;3.290;2024-01-16T07:29:19;5.03;;;3.05;;
81901;SDS011;71369;50.796;3.290;2024-01-16T07:31:45;6.55;;;3.17;;
81901;SDS011;71369;50.796;3.290;2024-01-16T07:34:11;7.00;;;3.45;;
81901;SDS011;71369;50.796;3.290;2024-01-16T07:36:37;6.22;;;3.20;;
81901;SDS011;71369;50.796;3.290;2024-01-16T07:39:03;6.43;;;3.20;;
81901;SDS011;71369;50.796;3.290;2024-01-16T07:41:29;11.15;;;4.25;;
81901;SDS011;71369;50.796;3.290;2024-01-16T07:43:54;9.30;;;4.07;;
81901;SDS011;71369;50.796;3.290;2024-01-16T07:46:20;4.35;;;3.20;;
81901;SDS011;71369;50.796;3.290;2024-01-16T07:48:46;5.70;;;3.10;;
81901;SDS011;71369;50.796;3.290;2024-01-16T07:51:12;6.72;;;3.33;;
81901;SDS011;71369;50.796;3.290;2024-01-16T07:53:37;7.47;;;3.20;;
81901;SDS011;71369;50.796;3.290;2024-01-16T07:56:03;9.00;;;3.75;;
81901;SDS011;71369;50.796;3.290;2024-01-16T07:58:30;7.05;;;3.25;;
81901;SDS011;71369;50.796;3.290;2024-01-16T08:00:56;13.35;;;3.92;;
81901;SDS011;71369;50.796;3.290;2024-01-16T08:03:22;7.32;;;3.20;;
81901;SDS011;71369;50.796;3.290;2024-01-16T08:05:47;10.63;;;3.65;;
81901;SDS011;71369;50.796;3.290;2024-01-16T08:08:14;5.07;;;3.15;;
81901;SDS011;71369;50.796;3.290;2024-01-16T08:10:43;7.68;;;3.75;;
81901;SDS011;71369;50.796;3.290;2024-01-16T08:13:09;11.88;;;4.78;;
81901;SDS011;71369;50.796;3.290;2024-01-16T08:15:35;5.50;;;3.95;;
81901;SDS011;71369;50.796;3.290;2024-01-16T08:18:02;7.57;;;3.88;;
81901;SDS011;71369;50.796;3.290;2024-01-16T08:20:28;6.65;;;4.00;;
81901;SDS011;71369;50.796;3.290;2024-01-16T08:22:53;10.07;;;4.18;;
81901;SDS011;71369;50.796;3.290;2024-01-16T08:25:19;5.93;;;3.47;;
81901;SDS011;71369;50.796;3.290;2024-01-16T08:27:45;7.03;;;3.45;;
81901;SDS011;71369;50.796;3.290;2024-01-16T08:30:11;8.57;;;4.25;;
81901;SDS011;71369;50.796;3.290;2024-01-16T08:32:37;12.10;;;3.85;;
81901;SDS011;71369;50.796;3.290;2024-01-16T08:35:03;11.80;;;4.07;;
81901;SDS011;71369;50.796;3.290;2024-01-16T08:37:31;8.88;;;3.70;;
81901;SDS011;71369;50.796;3.290;2024-01-16T08:39:57;9.25;;;3.97;;
81901;SDS011;71369;50.796;3.290;2024-01-16T08:42:23;8.30;;;3.88;;
81901;SDS011;71369;50.796;3.290;2024-01-16T08:44:49;5.50;;;3.47;;
81901;SDS011;71369;50.796;3.290;2024-01-16T08:47:15;7.25;;;3.85;;
81901;SDS011;71369;50.796;3.290;2024-01-16T08:49:40;17.13;;;3.65;;
81901;SDS011;71369;50.796;3.290;2024-01-16T08:52:06;7.47;;;3.75;;
81901;SDS011;71369;50.796;3.290;2024-01-16T08:54:32;6.47;;;3.28;;
81901;SDS011;71369;50.796;3.290;2024-01-16T08:56:58;7.55;;;3.75;;
81901;SDS011;71369;50.796;3.290;2024-01-16T08:59:25;7.05;;;4.30;;
81901;SDS011;71369;50.796;3.290;2024-01-16T09:01:51;7.68;;;3.80;;
81901;SDS011;71369;50.796;3.290;2024-01-16T09:04:16;6.50;;;4.25;;
81901;SDS011;71369;50.796;3.290;2024-01-16T09:06:42;8.50;;;4.45;;
81901;SDS011;71369;50.796;3.290;2024-01-16T09:09:08;8.90;;;3.83;;
81901;SDS011;71369;50.796;3.290;2024-01-16T09:11:34;6.32;;;4.20;;
81901;SDS011;71369;50.796;3.290;2024-01-16T09:14:01;9.48;;;4.22;;
81901;SDS011;71369;50.796;3.290;2024-01-16T09:16:26;7.22;;;4.18;;
81901;SDS011;71369;50.796;3.290;2024-01-16T09:18:52;11.25;;;4.47;;
81901;SDS011;71369;50.796;3.290;2024-01-16T09:21:18;6.75;;;3.72;;
81901;SDS011;71369;50.796;3.290;2024-01-16T09:23:44;8.80;;;4.07;;
81901;SDS011;71369;50.796;3.290;2024-01-16T09:26:09;7.10;;;3.85;;
81901;SDS011;71369;50.796;3.290;2024-01-16T09:28:35;5.72;;;4.00;;
81901;SDS011;71369;50.796;3.290;2024-01-16T09:31:01;8.88;;;4.65;;
81901;SDS011;71369;50.796;3.290;2024-01-16T09:33:27;11.43;;;4.20;;
81901;SDS011;71369;50.796;3.290;2024-01-16T09:35:53;11.15;;;4.43;;
81901;SDS011;71369;50.796;3.290;2024-01-16T09:38:18;9.40;;;4.13;;
81901;SDS011;71369;50.796;3.290;2024-01-16T09:40:44;18.42;;;4.25;;
81901;SDS011;71369;50.796;3.290;2024-01-16T09:43:11;11.70;;;4.55;;
81901;SDS011;71369;50.796;3.290;2024-01-16T09:45:37;9.45;;;4.40;;
81901;SDS011;71369;50.796;3.290;2024-01-16T09:48:04;12.05;;;4.45;;
81901;SDS011;71369;50.796;3.290;2024-01-16T09:50:31;11.93;;;4.35;;
81901;SDS011;71369;50.796;3.290;2024-01-16T09:52:57;6.45;;;4.30;;
81901;SDS011;71369;50.796;3.290;2024-01-16T09:55:23;8.30;;;4.97;;
81901;SDS011;71369;50.796;3.290;2024-01-16T09:57:50;11.50;;;5.35;;
81901;SDS011;71369;50.796;3.290;2024-01-16T10:00:18;14.23;;;5.18;;
81901;SDS011;71369;50.796;3.290;2024-01-16T10:02:44;10.63;;;5.47;;
81901;SDS011;71369;50.796;3.290;2024-01-16T10:05:11;10.00;;;5.30;;
81901;SDS011;71369;50.796;3.290;2024-01-16T10:07:38;8.27;;;5.40;;
81901;SDS011;71369;50.796;3.290;2024-01-16T10:10:05;16.88;;;5.50;;
81901;SDS011;71369;50.796;3.290;2024-01-16T10:12:32;35.53;;;6.43;;
81901;SDS011;71369;50.796;3.290;2024-01-16T10:14:58;14.23;;;5.97;;
81901;SDS011;71369;50.796;3.290;2024-01-16T10:17:43;13.48;;;5.78;;
81901;SDS011;71369;50.796;3.290;2024-01-16T10:20:09;11.85;;;6.25;;
81901;SDS011;71369;50.796;3.290;2024-01-16T10:22:39;9.43;;;5.50;;
81901;SDS011;71369;50.796;3.290;2024-01-16T10:25:09;11.35;;;5.55;;
81901;SDS011;71369;50.796;3.290;2024-01-16T10:27:42;10.93;;;5.30;;
81901;SDS011;71369;50.796;3.290;2024-01-16T10:30:08;11.50;;;5.10;;
81901;SDS011;71369;50.796;3.290;2024-01-16T10:32:38;11.27;;;4.75;;
81901;SDS011;71369;50.796;3.290;2024-01-16T10:35:06;12.13;;;4.50;;
81901;SDS011;71369;50.796;3.290;2024-01-16T10:37:46;9.02;;;4.32;;
81901;SDS011;71369;50.796;3.290;2024-01-16T10:40:16;7.50;;;5.03;;
81901;SDS011;71369;50.796;3.290;2024-01-16T10:42:44;21.15;;;4.65;;
81901;SDS011;71369;50.796;3.290;2024-01-16T10:45:18;15.30;;;4.30;;
81901;SDS011;71369;50.796;3.290;2024-01-16T10:47:48;19.65;;;6.85;;
81901;SDS011;71369;50.796;3.290;2024-01-16T10:50:25;10.75;;;4.10;;
81901;SDS011;71369;50.796;3.290;2024-01-16T10:52:50;9.30;;;5.22;;
81901;SDS011;71369;50.796;3.290;2024-01-16T10:55:20;14.90;;;4.57;;
81901;SDS011;71369;50.796;3.290;2024-01-16T10:57:49;9.48;;;4.63;;
81901;SDS011;71369;50.796;3.290;2024-01-16T11:00:19;10.85;;;4.45;;
81901;SDS011;71369;50.796;3.290;2024-01-16T11:02:50;6.50;;;4.03;;
81901;SDS011;71369;50.796;3.290;2024-01-16T11:05:27;10.55;;;4.63;;
81901;SDS011;71369;50.796;3.290;2024-01-16T11:07:55;9.45;;;4.43;;
81901;SDS011;71369;50.796;3.290;2024-01-16T11:10:24;9.93;;;4.88;;
81901;SDS011;71369;50.796;3.290;2024-01-16T11:12:50;8.25;;;4.25;;
81901;SDS011;71369;50.796;3.290;2024-01-16T11:15:17;10.13;;;3.97;;
81901;SDS011;71369;50.796;3.290;2024-01-16T11:17:44;9.90;;;4.88;;
81901;SDS011;71369;50.796;3.290;2024-01-16T11:20:11;9.77;;;4.32;;
81901;SDS011;71369;50.796;3.290;2024-01-16T11:22:39;9.95;;;3.67;;
81901;SDS011;71369;50.796;3.290;2024-01-16T11:25:07;21.42;;;4.30;;
81901;SDS011;71369;50.796;3.290;2024-01-16T11:27:42;9.23;;;3.60;;
81901;SDS011;71369;50.796;3.290;2024-01-16T11:30:09;6.88;;;3.13;;
81901;SDS011;71369;50.796;3.290;2024-01-16T11:35:03;8.30;;;4.05;;
81901;SDS011;71369;50.796;3.290;2024-01-16T11:37:32;8.63;;;3.55;;
81901;SDS011;71369;50.796;3.290;2024-01-16T11:42:46;7.90;;;3.40;;
81901;SDS011;71369;50.796;3.290;2024-01-16T11:48:12;6.35;;;3.40;;
81901;SDS011;71369;50.796;3.290;2024-01-16T11:50:40;5.45;;;3.50;;
81901;SDS011;71369;50.796;3.290;2024-01-16T11:53:06;7.13;;;3.00;;
81901;SDS011;71369;50.796;3.290;2024-01-16T11:55:42;6.00;;;2.97;;
81901;SDS011;71369;50.796;3.290;2024-01-16T12:01:28;4.53;;;2.50;;
81901;SDS011;71369;50.796;3.290;2024-01-16T12:04:01;8.55;;;2.85;;
81901;SDS011;71369;50.796;3.290;2024-01-16T12:06:30;17.23;;;3.35;;
81901;SDS011;71369;50.796;3.290;2024-01-16T12:09:13;9.18;;;3.03;;
81901;SDS011;71369;50.796;3.290;2024-01-16T12:11:40;5.30;;;2.10;;
81901;SDS011;71369;50.796;3.290;2024-01-16T12:14:08;9.30;;;2.55;;
81901;SDS011;71369;50.796;3.290;2024-01-16T12:16:34;7.10;;;2.28;;
81901;SDS011;71369;50.796;3.290;2024-01-16T12:19:08;6.13;;;2.22;;
81901;SDS011;71369;50.796;3.290;2024-01-16T12:21:44;5.20;;;2.50;;
81901;SDS011;71369;50.796;3.290;2024-01-16T12:24:10;6.75;;;2.35;;
81901;SDS011;71369;50.796;3.290;2024-01-16T12:26:37;12.25;;;2.58;;
81901;SDS011;71369;50.796;3.290;2024-01-16T12:29:04;7.55;;;2.13;;
81901;SDS011;71369;50.796;3.290;2024-01-16T12:31:31;4.63;;;2.35;;
81901;SDS011;71369;50.796;3.290;2024-01-16T12:34:06;5.65;;;2.20;;
81901;SDS011;71369;50.796;3.290;2024-01-16T12:36:35;5.57;;;2.05;;
81901;SDS011;71369;50.796;3.290;2024-01-16T12:39:01;3.17;;;1.83;;
81901;SDS011;71369;50.796;3.290;2024-01-16T12:41:28;2.97;;;1.60;;
81901;SDS011;71369;50.796;3.290;2024-01-16T12:43:59;5.28;;;1.92;;
81901;SDS011;71369;50.796;3.290;2024-01-16T12:46:25;4.82;;;1.90;;
81901;SDS011;71369;50.796;3.290;2024-01-16T12:48:51;6.82;;;2.10;;
81901;SDS011;71369;50.796;3.290;2024-01-16T12:51:20;7.78;;;2.75;;
81901;SDS011;71369;50.796;3.290;2024-01-16T12:53:49;10.93;;;3.40;;
81901;SDS011;71369;50.796;3.290;2024-01-16T12:56:17;6.28;;;2.50;;
81901;SDS011;71369;50.796;3.290;2024-01-16T12:58:47;4.35;;;2.20;;
81901;SDS011;71369;50.796;3.290;2024-01-16T13:01:23;6.57;;;2.10;;
81901;SDS011;71369;50.796;3.290;2024-01-16T13:03:50;7.00;;;2.38;;
81901;SDS011;71369;50.796;3.290;2024-01-16T13:06:18;6.25;;;1.88;;
81901;SDS011;71369;50.796;3.290;2024-01-16T13:08:48;8.02;;;2.05;;
81901;SDS011;71369;50.796;3.290;2024-01-16T13:11:15;6.82;;;2.00;;
81901;SDS011;71369;50.796;3.290;2024-01-16T13:13:48;3.33;;;1.67;;
81901;SDS011;71369;50.796;3.290;2024-01-16T13:16:14;3.67;;;2.00;;
81901;SDS011;71369;50.796;3.290;2024-01-16T13:18:41;3.75;;;2.17;;
81901;SDS011;71369;50.796;3.290;2024-01-16T13:21:07;4.80;;;2.20;;
81901;SDS011;71369;50.796;3.290;2024-01-16T13:23:32;4.07;;;2.35;;
81901;SDS011;71369;50.796;3.290;2024-01-16T13:25:58;3.58;;;2.00;;
81901;SDS011;71369;50.796;3.290;2024-01-16T13:28:24;4.50;;;2.17;;
81901;SDS011;71369;50.796;3.290;2024-01-16T13:30:50;3.15;;;2.00;;
81901;SDS011;71369;50.796;3.290;2024-01-16T13:33:17;5.88;;;2.25;;
81901;SDS011;71369;50.796;3.290;2024-01-16T13:35:44;6.00;;;2.63;;
81901;SDS011;71369;50.796;3.290;2024-01-16T13:38:14;6.33;;;2.80;;
81901;SDS011;71369;50.796;3.290;2024-01-16T13:40:44;4.45;;;2.30;;
81901;SDS011;71369;50.796;3.290;2024-01-16T13:43:10;5.88;;;2.50;;
81901;SDS011;71369;50.796;3.290;2024-01-16T13:45:37;4.68;;;2.47;;
81901;SDS011;71369;50.796;3.290;2024-01-16T13:48:04;5.63;;;2.30;;
81901;SDS011;71369;50.796;3.290;2024-01-16T13:50:31;4.20;;;2.00;;
81901;SDS011;71369;50.796;3.290;2024-01-16T13:52:58;5.07;;;2.20;;
81901;SDS011;71369;50.796;3.290;2024-01-16T13:55:27;5.88;;;2.55;;
81901;SDS011;71369;50.796;3.290;2024-01-16T13:57:53;3.50;;;2.15;;
81901;SDS011;71369;50.796;3.290;2024-01-16T14:00:19;4.80;;;2.33;;
81901;SDS011;71369;50.796;3.290;2024-01-16T14:02:46;7.25;;;2.63;;
81901;SDS011;71369;50.796;3.290;2024-01-16T14:05:15;5.38;;;2.42;;
81901;SDS011;71369;50.796;3.290;2024-01-16T14:07:46;7.55;;;2.55;;
81901;SDS011;71369;50.796;3.290;2024-01-16T14:10:17;6.18;;;2.67;;
81901;SDS011;71369;50.796;3.290;2024-01-16T14:12:44;5.82;;;2.65;;
81901;SDS011;71369;50.796;3.290;2024-01-16T14:15:12;6.65;;;2.70;;
81901;SDS011;71369;50.796;3.290;2024-01-16T14:17:42;7.03;;;2.40;;
81901;SDS011;71369;50.796;3.290;2024-01-16T14:20:11;6.57;;;2.90;;
81901;SDS011;71369;50.796;3.290;2024-01-16T14:22:38;5.20;;;2.38;;
81901;SDS011;71369;50.796;3.290;2024-01-16T14:25:08;7.25;;;2.13;;
81901;SDS011;71369;50.796;3.290;2024-01-16T14:27:40;4.72;;;2.42;;
81901;SDS011;71369;50.796;3.290;2024-01-16T14:30:12;5.50;;;2.20;;
81901;SDS011;71369;50.796;3.290;2024-01-16T14:32:42;5.63;;;2.20;;
81901;SDS011;71369;50.796;3.290;2024-01-16T14:35:09;4.75;;;2.40;;
81901;SDS011;71369;50.796;3.290;2024-01-16T14:37:38;7.35;;;2.72;;
81901;SDS011;71369;50.796;3.290;2024-01-16T14:40:04;6.32;;;2.40;;
81901;SDS011;71369;50.796;3.290;2024-01-16T14:42:51;4.10;;;2.50;;
81901;SDS011;71369;50.796;3.290;2024-01-16T14:45:21;9.40;;;2.13;;
81901;SDS011;71369;50.796;3.290;2024-01-16T14:47:48;6.05;;;2.55;;
81901;SDS011;71369;50.796;3.290;2024-01-16T14:50:16;7.97;;;2.40;;
81901;SDS011;71369;50.796;3.290;2024-01-16T14:52:43;6.47;;;2.72;;
81901;SDS011;71369;50.796;3.290;2024-01-16T14:55:09;4.60;;;2.50;;
81901;SDS011;71369;50.796;3.290;2024-01-16T14:57:37;3.88;;;2.17;;
81901;SDS011;71369;50.796;3.290;2024-01-16T15:00:12;9.20;;;2.83;;
81901;SDS011;71369;50.796;3.290;2024-01-16T15:02:44;6.03;;;3.38;;
81901;SDS011;71369;50.796;3.290;2024-01-16T15:05:16;6.13;;;2.90;;
81901;SDS011;71369;50.796;3.290;2024-01-16T15:07:44;8.70;;;3.22;;
81901;SDS011;71369;50.796;3.290;2024-01-16T15:10:10;5.70;;;2.95;;
81901;SDS011;71369;50.796;3.290;2024-01-16T15:12:40;6.90;;;2.90;;
81901;SDS011;71369;50.796;3.290;2024-01-16T15:15:10;6.35;;;2.83;;
81901;SDS011;71369;50.796;3.290;2024-01-16T15:17:38;3.47;;;2.78;;
81901;SDS011;71369;50.796;3.290;2024-01-16T15:20:07;5.10;;;3.05;;
81901;SDS011;71369;50.796;3.290;2024-01-16T15:22:38;7.35;;;3.63;;
81901;SDS011;71369;50.796;3.290;2024-01-16T15:25:09;5.97;;;3.25;;
81901;SDS011;71369;50.796;3.290;2024-01-16T15:27:35;8.15;;;3.30;;
81901;SDS011;71369;50.796;3.290;2024-01-16T15:30:04;9.88;;;3.70;;
81901;SDS011;71369;50.796;3.290;2024-01-16T15:32:33;7.85;;;3.25;;
81901;SDS011;71369;50.796;3.290;2024-01-16T15:34:58;10.85;;;3.95;;
81901;SDS011;71369;50.796;3.290;2024-01-16T15:37:25;6.88;;;3.22;;
81901;SDS011;71369;50.796;3.290;2024-01-16T15:39:52;7.20;;;3.35;;